createdAt,value
2018-09-06T00:01:58.346Z,15.70
2018-09-06T00:04:24.647Z,15.50
2018-09-06T00:06:51.065Z,15.57
2018-09-06T00:09:17.459Z,15.37
2018-09-06T00:11:43.854Z,16.90
2018-09-06T00:14:11.120Z,16.20
2018-09-06T00:16:38.324Z,16.33
2018-09-06T00:19:04.835Z,15.50
2018-09-06T00:21:31.273Z,15.57
2018-09-06T00:23:57.803Z,15.70
2018-09-06T00:26:24.143Z,16.27
2018-09-06T00:28:50.458Z,15.90
2018-09-06T00:31:17.057Z,14.87
2018-09-06T00:33:43.773Z,15.90
2018-09-06T00:36:10.150Z,16.10
2018-09-06T00:38:37.327Z,15.73
2018-09-06T00:41:03.669Z,14.73
2018-09-06T00:43:29.979Z,15.23
2018-09-06T00:45:57.104Z,15.30
2018-09-06T00:48:23.523Z,16.07
2018-09-06T00:50:49.907Z,14.87
2018-09-06T00:53:16.301Z,17.17
2018-09-06T00:55:42.725Z,15.03
2018-09-06T00:58:09.844Z,15.67
2018-09-06T01:00:36.305Z,14.30
2018-09-06T01:03:02.736Z,15.30
2018-09-06T01:05:29.297Z,15.20
2018-09-06T01:07:55.712Z,15.87
2018-09-06T01:10:22.757Z,17.37
2018-09-06T01:12:49.052Z,16.17
2018-09-06T01:15:15.390Z,15.50
2018-09-06T01:17:41.690Z,15.37
2018-09-06T01:20:08.959Z,16.97
2018-09-06T01:22:35.502Z,18.47
2018-09-06T01:25:02.083Z,17.50
2018-09-06T01:27:28.607Z,17.37
2018-09-06T01:29:54.885Z,18.73
2018-09-06T01:32:21.153Z,19.23
2018-09-06T01:34:47.446Z,18.07
2018-09-06T01:37:14.441Z,18.83
2018-09-06T01:39:40.822Z,19.90
2018-09-06T01:42:07.845Z,18.60
2018-09-06T01:44:34.213Z,19.03
2018-09-06T01:47:01.251Z,18.60
2018-09-06T01:49:28.244Z,17.73
2018-09-06T01:51:54.526Z,17.43
2018-09-06T01:54:21.516Z,16.97
2018-09-06T01:56:47.805Z,18.30
2018-09-06T01:59:14.802Z,18.03
2018-09-06T02:01:41.111Z,18.40
2018-09-06T02:04:07.377Z,17.33
2018-09-06T02:06:33.658Z,16.20
2018-09-06T02:08:59.964Z,17.50
2018-09-06T02:11:26.234Z,17.97
2018-09-06T02:13:52.545Z,16.23
2018-09-06T02:16:19.566Z,17.17
2018-09-06T02:18:45.834Z,17.93
2018-09-06T02:21:12.117Z,16.70
2018-09-06T02:23:38.362Z,18.90
2018-09-06T02:26:04.665Z,16.97
2018-09-06T02:28:30.942Z,17.00
2018-09-06T02:30:57.237Z,18.23
2018-09-06T02:33:23.522Z,18.07
2018-09-06T02:35:49.830Z,18.23
2018-09-06T02:38:16.824Z,18.97
2018-09-06T02:40:43.090Z,17.60
2018-09-06T02:43:09.354Z,18.80
2018-09-06T02:45:36.362Z,17.97
2018-09-06T02:48:02.618Z,17.73
2018-09-06T02:50:46.472Z,20.00
2018-09-06T02:53:13.461Z,21.40
2018-09-06T02:55:49.750Z,22.20
2018-09-06T02:58:16.010Z,20.20
2018-09-06T03:00:43.054Z,22.27
2018-09-06T03:03:09.315Z,20.73
2018-09-06T03:05:35.600Z,20.70
2018-09-06T03:08:01.877Z,19.90
2018-09-06T03:10:28.166Z,18.93
2018-09-06T03:12:54.441Z,18.63
2018-09-06T03:15:20.714Z,21.67
2018-09-06T03:17:47.029Z,20.90
2018-09-06T03:20:13.290Z,18.57
2018-09-06T03:22:40.332Z,19.57
2018-09-06T03:25:06.586Z,19.60
2018-09-06T03:27:33.597Z,20.03
2018-09-06T03:29:59.873Z,19.73
2018-09-06T03:32:26.911Z,19.80
2018-09-06T03:34:53.185Z,19.33
2018-09-06T03:37:19.490Z,19.80
2018-09-06T03:39:46.542Z,20.00
2018-09-06T03:42:12.794Z,19.33
2018-09-06T03:44:39.084Z,20.30
2018-09-06T03:47:06.089Z,21.47
2018-09-06T03:49:32.344Z,19.80
2018-09-06T03:51:58.650Z,18.53
2018-09-06T03:54:24.889Z,20.27
2018-09-06T03:56:51.173Z,20.00
2018-09-06T03:59:18.171Z,19.83
2018-09-06T04:01:44.408Z,20.80
2018-09-06T04:04:10.732Z,20.07
2018-09-06T04:06:36.979Z,22.30
2018-09-06T04:09:03.997Z,20.03
2018-09-06T04:11:30.278Z,20.37
2018-09-06T04:13:57.326Z,20.07
2018-09-06T04:16:24.337Z,21.10
2018-09-06T04:18:50.616Z,21.10
2018-09-06T04:21:16.894Z,20.83
2018-09-06T04:23:43.181Z,22.00
2018-09-06T04:26:09.946Z,21.60
2018-09-06T04:28:36.255Z,21.67
2018-09-06T04:31:02.638Z,22.60
2018-09-06T04:33:28.913Z,22.27
2018-09-06T04:35:55.218Z,20.63
2018-09-06T04:38:30.113Z,20.90
2018-09-06T04:41:03.029Z,23.77
2018-09-06T04:43:29.317Z,20.53
2018-09-06T04:45:55.578Z,21.00
2018-09-06T04:48:23.397Z,20.90
2018-09-06T04:50:49.646Z,22.07
2018-09-06T04:53:15.914Z,20.90
2018-09-06T04:55:42.166Z,23.63
2018-09-06T04:58:09.149Z,22.73
2018-09-06T05:00:35.442Z,23.40
2018-09-06T05:03:02.715Z,21.90
2018-09-06T05:05:29.721Z,22.03
2018-09-06T05:07:56.005Z,21.90
2018-09-06T05:10:22.249Z,22.33
2018-09-06T05:15:21.769Z,24.50
2018-09-06T05:17:50.299Z,23.60
2018-09-06T05:20:16.594Z,22.00
2018-09-06T05:22:42.857Z,22.23
2018-09-06T05:25:09.134Z,23.00
2018-09-06T05:27:35.410Z,23.10
2018-09-06T05:30:01.693Z,22.90
2018-09-06T05:32:27.993Z,24.50
2018-09-06T05:34:54.981Z,22.43
2018-09-06T05:37:22.144Z,22.57
2018-09-06T05:39:49.220Z,24.13
2018-09-06T05:42:15.870Z,21.30
2018-09-06T05:44:42.377Z,23.40
2018-09-06T05:47:11.158Z,22.73
2018-09-06T05:49:38.245Z,22.17
2018-09-06T05:52:06.009Z,23.97
2018-09-06T05:54:42.094Z,23.17
2018-09-06T05:57:09.382Z,24.17
2018-09-06T05:59:37.304Z,21.23
2018-09-06T06:02:04.371Z,25.07
2018-09-06T06:04:32.120Z,25.50
2018-09-06T06:06:58.427Z,24.63
2018-09-06T06:09:24.705Z,24.57
2018-09-06T06:11:51.757Z,23.17
2018-09-06T06:14:17.996Z,23.93
2018-09-06T06:16:45.017Z,23.93
2018-09-06T06:19:11.298Z,24.30
2018-09-06T06:21:37.585Z,22.20
2018-09-06T06:24:03.870Z,23.60
2018-09-06T06:26:30.145Z,24.90
2018-09-06T06:29:04.198Z,22.50
2018-09-06T06:31:30.607Z,24.23
2018-09-06T06:33:56.909Z,23.80
2018-09-06T06:36:23.189Z,24.53
2018-09-06T06:38:49.478Z,23.50
2018-09-06T06:41:15.726Z,26.17
2018-09-06T06:43:42.742Z,21.67
2018-09-06T06:46:09.045Z,22.60
2018-09-06T06:48:35.313Z,27.20
2018-09-06T06:51:01.654Z,24.17
2018-09-06T06:53:28.693Z,25.70
2018-09-06T06:55:54.993Z,24.43
2018-09-06T06:58:21.309Z,23.67
2018-09-06T07:00:47.666Z,23.83
2018-09-06T07:03:13.869Z,25.00
2018-09-06T07:05:40.189Z,26.30
2018-09-06T07:08:06.449Z,23.83
2018-09-06T07:10:32.695Z,23.83
2018-09-06T07:12:58.954Z,23.67
2018-09-06T07:15:25.926Z,24.73
2018-09-06T07:17:52.206Z,24.80
2018-09-06T07:20:18.448Z,25.53
2018-09-06T07:22:44.698Z,24.20
2018-09-06T07:25:11.713Z,24.57
2018-09-06T07:27:37.960Z,25.60
2018-09-06T07:30:04.248Z,25.00
2018-09-06T07:32:30.499Z,27.10
2018-09-06T07:34:56.803Z,24.50
2018-09-06T07:37:23.033Z,24.47
2018-09-06T07:39:49.297Z,25.27
2018-09-06T07:42:15.549Z,23.80
2018-09-06T07:44:42.641Z,22.67
2018-09-06T07:47:08.876Z,23.10
2018-09-06T07:49:35.169Z,24.70
2018-09-06T07:52:02.186Z,22.63
2018-09-06T07:54:28.528Z,23.13
2018-09-06T07:56:54.760Z,23.60
2018-09-06T07:59:21.042Z,23.30
2018-09-06T08:01:47.280Z,23.40
2018-09-06T08:04:13.510Z,22.87
2018-09-06T08:06:39.837Z,23.10
2018-09-06T08:09:06.088Z,23.37
2018-09-06T08:11:32.338Z,22.00
2018-09-06T08:13:58.779Z,23.27
2018-09-06T08:16:25.051Z,21.47
2018-09-06T08:18:51.350Z,22.33
2018-09-06T08:21:21.130Z,22.47
2018-09-06T08:23:47.394Z,21.70
2018-09-06T08:26:14.484Z,20.53
2018-09-06T08:28:42.079Z,21.83
2018-09-06T08:31:08.500Z,20.83
2018-09-06T08:33:35.030Z,21.30
2018-09-06T08:36:01.344Z,20.13
2018-09-06T08:38:28.098Z,21.27
2018-09-06T08:40:54.374Z,23.80
2018-09-06T08:43:20.687Z,22.07
2018-09-06T08:45:47.707Z,20.70
2018-09-06T08:48:14.052Z,21.47
2018-09-06T08:50:40.589Z,20.47
2018-09-06T08:53:08.107Z,21.17
2018-09-06T08:55:34.425Z,19.50
2018-09-06T08:58:01.230Z,21.80
2018-09-06T09:00:27.699Z,19.40
2018-09-06T09:02:54.112Z,20.33
2018-09-06T09:05:20.332Z,20.03
2018-09-06T09:07:47.305Z,19.93
2018-09-06T09:10:14.530Z,19.40
2018-09-06T09:12:42.664Z,20.07
2018-09-06T09:17:48.709Z,19.70
2018-09-06T09:20:17.036Z,20.20
2018-09-06T09:22:44.322Z,19.83
2018-09-06T09:25:13.598Z,17.90
2018-09-06T09:27:42.519Z,21.20
2018-09-06T09:30:10.019Z,19.40
2018-09-06T09:32:37.697Z,18.30
2018-09-06T09:35:10.933Z,18.53
2018-09-06T09:37:37.285Z,16.90
2018-09-06T09:40:04.551Z,19.47
2018-09-06T09:42:31.814Z,18.63
2018-09-06T09:45:01.527Z,18.43
2018-09-06T09:50:00.012Z,19.30
2018-09-06T09:52:26.406Z,18.13
2018-09-06T09:54:53.010Z,17.10
2018-09-06T09:57:20.171Z,17.60
2018-09-06T09:59:46.803Z,19.17
2018-09-06T10:02:13.371Z,19.60
2018-09-06T10:04:43.814Z,19.00
2018-09-06T10:07:10.375Z,20.93
2018-09-06T10:09:36.986Z,19.67
2018-09-06T10:12:08.228Z,18.97
2018-09-06T10:14:37.557Z,19.37
2018-09-06T10:17:04.475Z,19.87
2018-09-06T10:19:50.808Z,19.93
2018-09-06T10:22:19.132Z,18.50
2018-09-06T10:24:46.679Z,20.17
2018-09-06T10:27:13.023Z,20.00
2018-09-06T10:29:39.342Z,18.73
2018-09-06T10:32:05.671Z,19.80
2018-09-06T10:34:32.003Z,17.87
2018-09-06T10:36:58.311Z,20.03
2018-09-06T10:39:24.785Z,17.43
2018-09-06T10:41:50.994Z,17.17
2018-09-06T10:44:17.316Z,19.03
2018-09-06T10:46:43.606Z,19.17
2018-09-06T10:49:09.920Z,22.03
2018-09-06T10:51:36.208Z,19.90
2018-09-06T10:54:03.294Z,19.57
2018-09-06T10:56:31.268Z,20.00
2018-09-06T10:59:01.846Z,20.03
2018-09-06T11:01:28.917Z,18.70
2018-09-06T11:03:55.893Z,16.43
2018-09-06T11:06:24.264Z,19.10
2018-09-06T11:08:50.854Z,17.10
2018-09-06T11:11:17.820Z,15.73
2018-09-06T11:13:44.741Z,13.77
2018-09-06T11:16:11.541Z,11.10
2018-09-06T11:18:38.733Z,8.53
2018-09-06T11:21:05.916Z,7.80
2018-09-06T11:23:32.238Z,9.80
2018-09-06T11:25:58.529Z,8.97
2018-09-06T11:28:25.381Z,9.40
2018-09-06T11:30:51.734Z,9.53
2018-09-06T11:33:21.303Z,8.53
2018-09-06T11:35:50.377Z,8.10
2018-09-06T11:38:16.695Z,6.80
2018-09-06T11:40:43.742Z,7.43
2018-09-06T11:43:10.963Z,8.60
2018-09-06T11:45:37.343Z,9.57
2018-09-06T11:48:04.621Z,9.10
2018-09-06T11:50:31.066Z,9.77
2018-09-06T11:52:57.560Z,9.27
2018-09-06T11:55:23.882Z,9.67
2018-09-06T11:57:50.274Z,8.13
2018-09-06T12:00:18.614Z,9.03
2018-09-06T12:02:45.578Z,7.60
2018-09-06T12:05:12.260Z,7.47
2018-09-06T12:07:41.024Z,6.93
2018-09-06T12:10:11.224Z,6.97
2018-09-06T12:12:38.955Z,7.40
2018-09-06T12:15:06.892Z,7.00
2018-09-06T12:17:35.684Z,6.50
2018-09-06T12:20:09.581Z,5.90
2018-09-06T12:22:43.190Z,6.40
2018-09-06T12:30:48.775Z,7.20
2018-09-06T12:33:26.433Z,6.37
2018-09-06T12:35:56.882Z,6.97
2018-09-06T12:38:27.038Z,6.80
2018-09-06T12:40:56.313Z,5.70
2018-09-06T12:43:28.745Z,6.83
2018-09-06T12:46:02.037Z,5.30
2018-09-06T12:48:30.052Z,5.43
2018-09-06T12:50:57.277Z,5.77
2018-09-06T12:53:24.409Z,5.33
2018-09-06T12:55:50.770Z,5.27
2018-09-06T12:58:20.069Z,4.60
2018-09-06T13:00:47.262Z,4.70
2018-09-06T13:03:15.609Z,4.40
2018-09-06T13:05:42.022Z,5.03
2018-09-06T13:08:08.929Z,5.53
2018-09-06T13:10:37.015Z,4.83
2018-09-06T13:13:07.634Z,5.20
2018-09-06T13:15:34.341Z,4.90
2018-09-06T13:18:01.826Z,5.87
2018-09-06T13:20:30.530Z,5.23
2018-09-06T13:22:57.713Z,5.30
2018-09-06T13:25:25.257Z,5.53
2018-09-06T13:27:51.564Z,5.63
2018-09-06T13:30:19.357Z,5.70
2018-09-06T13:32:46.189Z,5.23
2018-09-06T13:35:18.741Z,5.93
2018-09-06T13:37:48.739Z,6.10
2018-09-06T13:40:16.107Z,7.00
2018-09-06T13:42:52.508Z,8.60
2018-09-06T13:45:20.499Z,10.20
2018-09-06T13:47:48.767Z,9.00
2018-09-06T13:50:16.673Z,11.87
2018-09-06T13:52:43.092Z,10.20
2018-09-06T13:55:09.420Z,12.80
2018-09-06T13:57:35.671Z,10.83
2018-09-06T14:00:02.072Z,10.00
2018-09-06T14:02:28.346Z,10.20
2018-09-06T14:04:54.645Z,11.50
2018-09-06T14:07:20.919Z,11.57
2018-09-06T14:09:47.255Z,10.93
2018-09-06T14:12:14.301Z,10.27
2018-09-06T14:14:41.366Z,10.80
2018-09-06T14:17:07.631Z,11.33
2018-09-06T14:19:33.934Z,11.07
2018-09-06T14:22:01.835Z,11.07
2018-09-06T14:24:28.204Z,11.40
2018-09-06T14:26:54.515Z,9.97
2018-09-06T14:29:20.786Z,10.80
2018-09-06T14:31:47.793Z,10.80
2018-09-06T14:34:14.130Z,11.10
2018-09-06T14:36:40.411Z,10.90
2018-09-06T14:39:06.841Z,11.67
2018-09-06T14:41:33.088Z,11.27
2018-09-06T14:44:00.195Z,11.60
2018-09-06T14:46:27.526Z,11.17
2018-09-06T14:48:54.928Z,11.63
2018-09-06T14:51:21.201Z,11.20
2018-09-06T14:53:47.494Z,10.70
2018-09-06T14:56:14.550Z,11.47
2018-09-06T14:58:42.416Z,13.57
2018-09-06T15:01:13.209Z,12.50
2018-09-06T15:03:39.539Z,13.00
2018-09-06T15:06:11.658Z,14.47
2018-09-06T15:08:38.959Z,14.80
2018-09-06T15:11:06.730Z,14.00
2018-09-06T15:13:34.188Z,15.10
2018-09-06T15:16:00.660Z,15.23
2018-09-06T15:18:27.290Z,16.47
2018-09-06T15:20:54.946Z,15.80
2018-09-06T15:23:22.498Z,16.50
2018-09-06T15:25:49.647Z,17.27
2018-09-06T15:28:16.620Z,16.83
2018-09-06T15:30:43.599Z,15.60
2018-09-06T15:33:10.102Z,14.90
2018-09-06T15:35:36.399Z,18.07
2018-09-06T15:38:02.956Z,16.03
2018-09-06T15:40:29.283Z,15.20
2018-09-06T15:42:57.173Z,14.07
2018-09-06T15:45:23.531Z,13.00
2018-09-06T15:47:51.067Z,13.20
2018-09-06T15:50:18.562Z,13.87
2018-09-06T15:52:45.284Z,14.00
2018-09-06T15:55:11.660Z,13.70
2018-09-06T15:57:38.511Z,12.30
2018-09-06T16:00:04.919Z,12.80
2018-09-06T16:02:31.504Z,11.30
2018-09-06T16:04:57.928Z,14.17
2018-09-06T16:07:24.985Z,12.73
2018-09-06T16:09:51.349Z,15.10
2018-09-06T16:12:17.660Z,16.23
2018-09-06T16:14:44.977Z,16.03
2018-09-06T16:17:12.316Z,16.33
2018-09-06T16:19:38.683Z,15.37
2018-09-06T16:22:05.034Z,17.93
2018-09-06T16:24:31.423Z,16.90
2018-09-06T16:26:57.844Z,16.30
2018-09-06T16:29:25.235Z,15.73
2018-09-06T16:31:51.575Z,15.23
2018-09-06T16:34:17.926Z,16.10
2018-09-06T16:36:44.191Z,14.90
2018-09-06T16:39:10.493Z,15.10
2018-09-06T16:41:36.777Z,14.70
2018-09-06T16:44:03.107Z,13.10
2018-09-06T16:46:30.157Z,12.97
2018-09-06T16:48:56.454Z,14.03
2018-09-06T16:51:22.733Z,14.20
2018-09-06T16:53:49.000Z,14.87
2018-09-06T16:56:15.758Z,15.33
2018-09-06T16:58:42.119Z,16.20
2018-09-06T17:01:08.507Z,15.57
2018-09-06T17:03:35.485Z,16.47
2018-09-06T17:06:01.863Z,16.70
2018-09-06T17:08:31.287Z,16.50
2018-09-06T17:10:57.757Z,16.27
2018-09-06T17:13:24.031Z,17.53
2018-09-06T17:15:51.122Z,16.53
2018-09-06T17:18:17.408Z,16.87
2018-09-06T17:20:44.402Z,16.53
2018-09-06T17:23:11.305Z,16.13
2018-09-06T17:25:37.716Z,15.93
2018-09-06T17:28:03.974Z,17.07
2018-09-06T17:30:31.497Z,17.37
2018-09-06T17:33:05.034Z,16.13
2018-09-06T17:35:41.770Z,17.37
2018-09-06T17:38:12.984Z,16.80
2018-09-06T17:40:46.220Z,17.67
2018-09-06T17:43:23.053Z,17.27
2018-09-06T17:45:56.280Z,18.83
2018-09-06T17:48:30.228Z,18.83
2018-09-06T17:51:03.661Z,21.80
2018-09-06T17:53:39.276Z,18.70
2018-09-06T17:56:11.200Z,20.43
2018-09-06T17:58:44.778Z,20.20
2018-09-06T18:01:18.444Z,19.47
2018-09-06T18:03:56.378Z,19.03
2018-09-06T18:06:27.801Z,20.07
2018-09-06T18:08:59.660Z,19.87
2018-09-06T18:11:31.715Z,19.63
2018-09-06T18:14:03.189Z,21.13
2018-09-06T18:16:38.736Z,20.57
2018-09-06T18:19:07.153Z,19.50
2018-09-06T18:21:35.800Z,17.87
2018-09-06T18:24:08.402Z,18.67
2018-09-06T18:26:43.325Z,16.07
2018-09-06T18:29:14.001Z,16.63
2018-09-06T18:31:51.979Z,15.87
2018-09-06T18:34:27.778Z,14.40
2018-09-06T18:37:01.197Z,14.47
2018-09-06T18:39:39.792Z,16.07
2018-09-06T18:42:16.455Z,14.30
2018-09-06T18:44:53.732Z,14.93
2018-09-06T18:47:23.073Z,16.87
2018-09-06T18:49:53.027Z,16.80
2018-09-06T18:52:22.124Z,18.20
2018-09-06T18:54:52.013Z,18.70
2018-09-06T18:57:20.187Z,16.67
2018-09-06T18:59:49.698Z,19.87
2018-09-06T19:02:19.929Z,18.50
2018-09-06T19:04:53.529Z,18.30
2018-09-06T19:07:23.186Z,18.30
2018-09-06T19:09:51.414Z,19.00
2018-09-06T19:12:21.831Z,19.70
2018-09-06T19:14:52.514Z,19.80
2018-09-06T19:17:21.558Z,20.80
2018-09-06T19:19:52.505Z,18.20
2018-09-06T19:22:25.592Z,22.23
2018-09-06T19:25:00.665Z,18.67
2018-09-06T19:27:34.880Z,18.77
2018-09-06T19:30:08.987Z,20.17
2018-09-06T19:32:39.694Z,19.73
2018-09-06T19:35:12.472Z,21.80
2018-09-06T19:37:41.248Z,20.63
2018-09-06T19:40:11.821Z,21.57
2018-09-06T19:42:41.336Z,20.90
2018-09-06T19:45:17.512Z,21.63
2018-09-06T19:47:44.803Z,19.53
2018-09-06T19:52:49.722Z,20.20
2018-09-06T19:55:21.531Z,21.43
2018-09-06T19:57:48.029Z,21.63
2018-09-06T20:00:14.321Z,21.83
2018-09-06T20:02:41.508Z,21.87
2018-09-06T20:05:07.826Z,22.70
2018-09-06T20:07:34.059Z,20.60
2018-09-06T20:10:00.342Z,22.40
2018-09-06T20:12:26.636Z,22.50
2018-09-06T20:14:53.663Z,24.10
2018-09-06T20:17:19.966Z,22.80
2018-09-06T20:19:46.200Z,23.27
2018-09-06T20:22:14.333Z,21.47
2018-09-06T20:24:40.655Z,25.30
2018-09-06T20:27:06.920Z,23.30
2018-09-06T20:29:35.393Z,22.10
2018-09-06T20:32:02.509Z,22.53
2018-09-06T20:34:30.355Z,23.57
2018-09-06T20:36:57.460Z,22.37
2018-09-06T20:39:26.010Z,25.37
2018-09-06T20:41:53.059Z,24.07
2018-09-06T20:44:20.033Z,23.33
2018-09-06T20:46:47.344Z,26.47
2018-09-06T20:49:14.177Z,25.00
2018-09-06T20:51:40.406Z,26.07
2018-09-06T20:54:06.677Z,25.23
2018-09-06T20:56:33.007Z,27.13
2018-09-06T20:58:59.266Z,27.37
2018-09-06T21:01:26.258Z,25.30
2018-09-06T21:03:52.532Z,27.20
2018-09-06T21:06:19.520Z,25.00
2018-09-06T21:08:47.316Z,28.63
2018-09-06T21:11:13.583Z,26.97
2018-09-06T21:13:41.130Z,27.47
2018-09-06T21:16:08.901Z,31.40
2018-09-06T21:18:35.921Z,47.90
2018-09-06T21:21:02.324Z,38.13
2018-09-06T21:23:28.645Z,32.20
2018-09-06T21:25:59.058Z,32.10
2018-09-06T21:28:25.393Z,32.47
2018-09-06T21:30:51.650Z,32.50
2018-09-06T21:33:18.638Z,32.10
2018-09-06T21:35:45.451Z,32.13
2018-09-06T21:38:11.759Z,35.07
2018-09-06T21:40:39.160Z,35.10
2018-09-06T21:43:06.202Z,36.07
2018-09-06T21:45:34.023Z,34.43
2018-09-06T21:48:00.306Z,36.70
2018-09-06T21:50:26.611Z,37.00
2018-09-06T21:52:52.893Z,37.20
2018-09-06T21:55:19.150Z,39.37
2018-09-06T21:57:45.548Z,34.20
2018-09-06T22:00:11.841Z,38.33
2018-09-06T22:02:38.134Z,37.33
2018-09-06T22:05:05.174Z,35.57
2018-09-06T22:07:31.516Z,38.93
2018-09-06T22:09:58.601Z,39.57
2018-09-06T22:12:24.843Z,38.73
2018-09-06T22:14:51.129Z,37.47
2018-09-06T22:17:19.416Z,38.87
2018-09-06T22:19:46.401Z,38.33
2018-09-06T22:22:12.735Z,39.77
2018-09-06T22:24:42.026Z,42.50
2018-09-06T22:30:07.545Z,42.73
2018-09-06T22:32:33.825Z,43.93
2018-09-06T22:35:00.776Z,41.30
2018-09-06T22:37:28.931Z,41.43
2018-09-06T22:39:57.082Z,39.80
2018-09-06T22:42:23.861Z,42.17
2018-09-06T22:44:50.193Z,41.37
2018-09-06T22:47:16.440Z,42.03
2018-09-06T22:49:44.406Z,43.97
2018-09-06T22:52:10.674Z,41.67
2018-09-06T22:54:36.951Z,41.37
2018-09-06T22:57:03.280Z,41.37
2018-09-06T22:59:30.202Z,43.27
2018-09-06T23:01:59.891Z,41.23
2018-09-06T23:04:26.201Z,40.67
2018-09-06T23:06:53.214Z,43.27
2018-09-06T23:09:19.465Z,41.37
2018-09-06T23:11:45.735Z,41.40
2018-09-06T23:14:12.742Z,43.13
2018-09-06T23:16:39.114Z,40.87
2018-09-06T23:19:05.371Z,39.57
2018-09-06T23:21:31.619Z,40.00
2018-09-06T23:23:57.907Z,41.07
2018-09-06T23:26:24.165Z,37.70
2018-09-06T23:28:50.476Z,40.20
2018-09-06T23:31:16.774Z,40.57
2018-09-06T23:33:43.013Z,44.83
2018-09-06T23:36:09.297Z,41.77
2018-09-06T23:38:35.618Z,43.23
2018-09-06T23:41:01.908Z,42.30
2018-09-06T23:43:28.198Z,42.80
2018-09-06T23:45:54.462Z,42.63
2018-09-06T23:48:21.442Z,44.87
2018-09-06T23:50:48.493Z,42.50
2018-09-06T23:53:15.509Z,40.50
2018-09-06T23:55:41.749Z,39.80
2018-09-06T23:58:08.045Z,41.87
